Time;durP1;ratioP1;P1;durP2;ratioP2;P2;SDS_P1;SDS_P2;PMS_P1;PMS_P2;Temp;Humidity;BMP_temperature;BMP_pressure;BME280_temperature;BME280_humidity;BME280_pressure;Samples;Min_cycle;Max_cycle;Signal;HPM_P1;HPM_P2
2024/03/06 00:01:34;;;;;;;20.20;13.00;;;;;;;13.24;41.72;99771.58;104816;1263;73209;-64
2024/03/06 00:07:17;;;;;;;16.40;11.30;;;;;;;13.29;41.83;99771.16;104191;1259;59846;-63
2024/03/06 00:20:42;;;;;;;13.10;11.20;;;;;;;13.17;42.03;99774.59;104196;1264;61366;-65
2024/03/06 00:23:54;;;;;;;21.20;11.70;;;;;;;13.10;42.29;99771.95;103956;1265;59943;-66
2024/03/06 00:37:19;;;;;;;21.70;10.90;;;;;;;12.67;43.00;99774.25;104554;1257;62515;-64
2024/03/06 00:40:36;;;;;;;16.30;11.10;;;;;;;12.61;43.01;99772.65;105373;1258;59906;-64
2024/03/06 00:54:07;;;;;;;14.50;10.30;;;;;;;12.59;43.29;99775.89;104403;1260;62562;-63
2024/03/06 00:57:01;;;;;;;13.70;10.30;;;;;;;12.45;43.15;99774.98;104764;1263;59739;-63
2024/03/06 01:00:15;;;;;;;16.90;9.70;;;;;;;12.44;43.14;99772.77;104042;1264;73161;-63
2024/03/06 01:02:43;;;;;;;15.30;10.60;;;;;;;12.42;43.01;99778.66;104202;1265;69791;-63
2024/03/06 01:05:55;;;;;;;14.80;11.30;;;;;;;12.30;43.14;99780.46;104729;1260;72827;-63
2024/03/06 01:15:07;;;;;;;13.40;10.40;;;;;;;12.24;43.66;99793.06;105548;1263;73779;-63
2024/03/06 01:28:20;;;;;;;12.30;10.00;;;;;;;12.28;43.71;99799.91;104295;1263;60200;-63
2024/03/06 01:31:32;;;;;;;13.80;10.10;;;;;;;12.25;43.40;99801.63;104102;1259;75277;-62
2024/03/06 01:37:54;;;;;;;19.60;10.40;;;;;;;12.12;43.81;99800.82;107499;1259;72849;-62
2024/03/06 01:50:53;;;;;;;14.70;10.40;;;;;;;11.99;44.56;99793.49;107574;1258;69993;-63
2024/03/06 01:56:29;;;;;;;17.60;10.70;;;;;;;12.08;44.36;99794.34;107587;1259;61522;-63
2024/03/06 01:58:57;;;;;;;19.40;11.50;;;;;;;12.05;44.38;99795.48;107603;1259;59699;-62
2024/03/06 02:05:32;;;;;;;16.70;11.00;;;;;;;12.26;44.17;99799.45;107614;1259;69313;-61
2024/03/06 02:22:00;;;;;;;15.30;11.00;;;;;;;12.33;44.19;99816.17;107597;1260;69614;-65
2024/03/06 02:37:00;;;;;;;21.80;11.70;;;;;;;11.95;45.21;99821.98;107552;1257;69782;-65
2024/03/06 02:39:46;;;;;;;16.30;12.00;;;;;;;11.96;45.09;99824.92;107617;1259;74961;-63
2024/03/06 02:46:20;;;;;;;16.10;11.60;;;;;;;11.85;45.38;99824.69;107648;1259;60435;-64
2024/03/06 02:58:31;;;;;;;20.40;12.50;;;;;;;11.73;45.90;99844.88;107558;1257;59971;-63
2024/03/06 03:04:44;;;;;;;20.10;13.80;;;;;;;12.16;44.97;99843.70;108049;1253;73573;-63
2024/03/06 03:07:21;;;;;;;21.70;14.30;;;;;;;12.10;44.97;99848.90;108235;1253;69194;-63
2024/03/06 03:24:21;;;;;;;18.10;13.50;;;;;;;11.77;45.73;99858.39;108319;1253;69665;-63
2024/03/06 03:29:44;;;;;;;18.90;15.70;;;;;;;11.70;45.88;99862.92;107857;1253;60597;-63
2024/03/06 03:36:10;;;;;;;20.80;14.30;;;;;;;11.61;46.05;99864.73;107891;1253;72035;-65
2024/03/06 03:47:51;;;;;;;23.20;16.30;;;;;;;11.85;45.73;99873.53;108203;1255;59628;-64
2024/03/06 03:54:26;;;;;;;17.90;14.90;;;;;;;11.93;45.71;99872.85;108299;1253;69450;-64
2024/03/06 03:57:40;;;;;;;20.80;16.10;;;;;;;11.95;45.43;99871.36;107843;1254;73462;-63
2024/03/06 04:00:22;;;;;;;18.20;16.00;;;;;;;11.89;45.54;99872.49;107973;1253;62655;-63
2024/03/06 04:20:49;;;;;;;24.20;17.70;;;;;;;11.52;46.18;99897.58;108361;1254;60675;-63
2024/03/06 04:27:23;;;;;;;26.80;17.90;;;;;;;11.56;45.82;99912.52;108368;1254;69945;-64
2024/03/06 04:33:45;;;;;;;20.50;16.50;;;;;;;11.37;45.96;99919.45;108232;1252;60692;-62
2024/03/06 04:42:39;;;;;;;22.90;17.50;;;;;;;11.08;46.90;99926.10;108201;1253;69168;-63
2024/03/06 04:49:25;;;;;;;24.90;18.60;;;;;;;11.14;46.69;99936.38;108360;1254;61386;-62
2024/03/06 04:59:02;;;;;;;23.70;18.60;;;;;;;10.67;47.95;99939.78;108191;1253;71805;-63
2024/03/06 05:02:14;;;;;;;24.30;18.90;;;;;;;10.58;47.81;99944.86;107969;1253;72515;-62
2024/03/06 05:12:54;;;;;;;22.80;18.10;;;;;;;11.03;47.13;99955.77;108142;1253;74627;-62
2024/03/06 05:19:32;;;;;;;23.30;19.00;;;;;;;10.79;47.22;99961.41;108271;1254;72511;-62
2024/03/06 05:23:07;;;;;;;24.90;19.10;;;;;;;10.87;47.35;99964.43;108188;1257;60984;-61
2024/03/06 05:29:45;;;;;;;25.90;19.30;;;;;;;10.95;46.87;99966.59;108308;1254;74501;-61
2024/03/06 05:33:14;;;;;;;25.80;19.00;;;;;;;11.07;46.49;99967.48;108217;1253;69501;-61
2024/03/06 05:36:43;;;;;;;26.60;19.20;;;;;;;11.02;46.63;99966.83;108166;1254;72559;-62
2024/03/06 05:39:46;;;;;;;28.40;20.70;;;;;;;10.91;46.44;99970.07;108175;1253;63261;-63
2024/03/06 05:43:15;;;;;;;28.40;20.80;;;;;;;10.88;46.88;99970.37;108268;1254;59792;-62
2024/03/06 05:46:46;;;;;;;28.60;19.10;;;;;;;10.86;46.65;99971.64;108353;1253;72495;-63
2024/03/06 05:50:15;;;;;;;26.70;20.50;;;;;;;10.82;46.78;99971.63;108234;1253;69092;-63
2024/03/06 06:03:34;;;;;;;26.80;19.60;;;;;;;10.91;46.68;99983.38;103995;1269;60811;-64
2024/03/06 06:12:18;;;;;;;25.20;19.10;;;;;;;11.16;45.83;99995.77;103289;1260;3337966;-65
2024/03/06 06:18:45;;;;;;;25.40;19.80;;;;;;;11.12;45.68;100000.50;104359;1259;59635;-66
2024/03/06 06:21:57;;;;;;;25.30;19.40;;;;;;;10.91;45.56;100001.11;104554;1260;62416;-64
2024/03/06 06:31:18;;;;;;;31.20;22.10;;;;;;;10.58;46.26;100004.64;104337;1262;72285;-62
2024/03/06 06:40:09;;;;;;;28.10;20.30;;;;;;;10.63;46.49;100015.86;104454;1270;73537;-64
2024/03/06 06:46:18;;;;;;;32.70;23.40;;;;;;;10.65;46.22;100020.33;104078;1273;72418;-64
2024/03/06 06:57:55;;;;;;;32.50;24.50;;;;;;;10.52;46.62;100027.65;105416;1260;68602;-62
2024/03/06 07:01:16;;;;;;;34.60;24.20;;;;;;;10.53;46.56;100029.88;104599;1258;73953;-63
2024/03/06 07:11:12;;;;;;;31.40;24.10;;;;;;;10.61;46.17;100040.63;105760;1257;75991;-64
2024/03/06 07:17:07;;;;;;;34.40;24.20;;;;;;;10.39;46.79;100038.48;104807;1262;72577;-63
2024/03/06 07:23:36;;;;;;;38.20;25.40;;;;;;;10.69;46.32;100049.29;105960;1257;60075;-63
2024/03/06 07:26:31;;;;;;;33.60;24.70;;;;;;;10.68;46.01;100048.44;106503;1257;73662;-63
2024/03/06 07:29:18;;;;;;;29.60;23.10;;;;;;;10.85;45.67;100058.52;105682;1257;71623;-63
2024/03/06 07:31:58;;;;;;;30.90;22.50;;;;;;;10.90;45.63;100060.24;104934;1257;72564;-61
2024/03/06 07:41:30;;;;;;;27.90;20.90;;;;;;;10.90;45.34;100065.86;105659;1257;73470;-62
2024/03/06 07:43:58;;;;;;;29.10;20.70;;;;;;;10.97;45.14;100067.36;106437;1259;70233;-63
2024/03/06 07:47:11;;;;;;;28.20;21.90;;;;;;;11.27;44.56;100064.64;104599;1256;73614;-63
2024/03/06 07:50:27;;;;;;;27.60;20.60;;;;;;;11.21;44.50;100066.98;104793;1257;60274;-63
2024/03/06 08:03:13;;;;;;;29.00;19.60;;;;;;;11.17;43.91;100075.19;104495;1261;72916;-63
2024/03/06 08:25:32;;;;;;;29.00;21.30;;;;;;;11.16;43.73;100060.67;105282;1257;63040;-61
2024/03/06 08:28:45;;;;;;;27.00;20.60;;;;;;;11.27;43.54;100082.88;104073;1254;74387;-62
2024/03/06 08:44:30;;;;;;;33.20;23.80;;;;;;;10.90;44.25;100084.98;104375;1272;72741;-63
2024/03/06 09:03:48;;;;;;;25.10;20.40;;;;;;;10.88;44.73;100103.13;105211;1256;71316;-63
2024/03/06 09:07:02;;;;;;;29.70;21.20;;;;;;;10.84;44.75;100104.15;106072;1254;75193;-63
2024/03/06 09:13:14;;;;;;;27.30;20.00;;;;;;;11.00;44.51;100103.21;105964;1253;62595;-64
2024/03/06 09:19:32;;;;;;;30.10;20.40;;;;;;;10.98;44.32;100105.21;105070;1254;69374;-63
2024/03/06 09:26:23;;;;;;;25.90;19.00;;;;;;;11.04;44.45;100110.09;105372;1256;62115;-66
2024/03/06 09:28:58;;;;;;;23.00;19.10;;;;;;;11.11;44.29;100111.40;104698;1254;62181;-61
2024/03/06 09:35:22;;;;;;;22.90;18.00;;;;;;;11.01;43.97;100117.57;105096;1258;69526;-62
2024/03/06 09:38:37;;;;;;;25.20;18.70;;;;;;;11.07;43.93;100117.17;105098;1253;72876;-63
2024/03/06 09:48:08;;;;;;;23.40;17.90;;;;;;;10.87;43.73;100127.70;104741;1259;74524;-63
2024/03/06 09:58:07;;;;;;;22.90;16.90;;;;;;;10.78;43.97;100131.02;106433;1253;60736;-61
2024/03/06 10:01:23;;;;;;;25.80;18.20;;;;;;;10.78;44.00;100131.56;105383;1253;61834;-61
2024/03/06 10:04:37;;;;;;;23.00;18.10;;;;;;;10.79;43.92;100127.81;106163;1253;73874;-61
2024/03/06 10:07:18;;;;;;;24.40;17.50;;;;;;;10.70;43.68;100134.45;104340;1267;71298;-61
2024/03/06 10:13:38;;;;;;;23.70;17.00;;;;;;;10.82;43.83;100143.66;107265;1253;62393;-62
2024/03/06 10:16:51;;;;;;;23.30;17.80;;;;;;;10.76;43.79;100136.88;105534;1260;60068;-61
2024/03/06 10:20:04;;;;;;;24.70;17.10;;;;;;;10.57;43.74;100140.35;107306;1253;73482;-64
2024/03/06 10:23:18;;;;;;;20.70;17.30;;;;;;;10.58;44.05;100142.60;104787;1256;71930;-62
2024/03/06 10:26:31;;;;;;;25.70;17.80;;;;;;;10.52;44.20;100138.59;104709;1260;72822;-60
2024/03/06 10:29:43;;;;;;;21.20;17.50;;;;;;;10.47;44.01;100146.29;106060;1256;60780;-63
2024/03/06 10:32:55;;;;;;;23.40;18.00;;;;;;;10.52;44.10;100142.26;105168;1253;59737;-64
2024/03/06 10:36:08;;;;;;;23.40;17.50;;;;;;;10.52;43.97;100141.77;105474;1257;74917;-64
2024/03/06 10:38:39;;;;;;;23.20;18.60;;;;;;;10.49;44.24;100147.11;106178;1258;69839;-65
2024/03/06 10:41:54;;;;;;;20.90;17.50;;;;;;;10.54;44.02;100152.56;105362;1253;72543;-65
2024/03/06 10:45:12;;;;;;;23.80;17.20;;;;;;;10.63;43.79;100151.02;106178;1253;63473;-63
2024/03/06 11:02:18;;;;;;;22.90;17.80;;;;;;;10.61;43.60;100151.25;104990;1259;60587;-64
2024/03/06 11:05:30;;;;;;;23.90;18.20;;;;;;;10.56;43.44;100157.05;106211;1260;59606;-64
2024/03/06 11:08:42;;;;;;;24.00;18.10;;;;;;;10.58;43.47;100153.45;105446;1258;73830;-63
2024/03/06 11:11:55;;;;;;;28.50;18.80;;;;;;;10.51;43.47;100158.77;104973;1253;69247;-64
2024/03/06 11:17:24;;;;;;;24.90;18.60;;;;;;;10.12;45.36;100160.84;100853;1303;603823;-63
2024/03/06 11:20:36;;;;;;;25.00;19.20;;;;;;;11.26;42.26;100158.20;104375;1266;60917;-65
2024/03/06 11:23:48;;;;;;;22.80;18.60;;;;;;;11.42;41.71;100154.42;105594;1267;60360;-65
2024/03/06 11:30:10;;;;;;;24.00;18.20;;;;;;;11.51;41.41;100156.36;101887;1264;5314682;-65
2024/03/06 11:33:28;;;;;;;24.10;18.10;;;;;;;11.19;42.10;100155.15;106670;1256;60953;-64
2024/03/06 11:43:42;;;;;;;25.10;19.70;;;;;;;11.13;41.93;100151.83;104891;1257;70494;-64
2024/03/06 11:46:54;;;;;;;26.40;19.40;;;;;;;11.22;41.75;100153.63;104612;1256;75350;-65
2024/03/06 11:50:08;;;;;;;28.80;19.50;;;;;;;11.34;41.38;100154.41;104980;1257;60982;-64
2024/03/06 11:53:25;;;;;;;27.70;20.10;;;;;;;11.52;41.24;100150.73;105315;1256;60671;-64
2024/03/06 11:56:37;;;;;;;30.20;21.10;;;;;;;11.41;40.98;100150.09;104990;1260;71899;-64
2024/03/06 11:59:49;;;;;;;29.00;22.70;;;;;;;11.36;41.22;100148.52;104783;1259;68806;-64
2024/03/06 12:03:01;;;;;;;31.00;22.40;;;;;;;11.48;41.15;100149.14;105751;1256;72550;-63
2024/03/06 12:06:14;;;;;;;30.00;23.30;;;;;;;11.44;41.10;100151.94;105650;1256;61780;-65
2024/03/06 12:09:29;;;;;;;28.40;22.50;;;;;;;11.59;40.56;100147.48;105140;1259;59684;-64
2024/03/06 12:12:24;;;;;;;32.00;23.10;;;;;;;11.66;40.63;100150.54;105312;1260;73701;-68
2024/03/06 12:15:03;;;;;;;31.40;23.80;;;;;;;11.66;40.54;100150.00;105280;1259;69338;-64
2024/03/06 12:18:09;;;;;;;34.00;26.60;;;;;;;11.62;40.67;100147.18;105785;1255;72478;-63
2024/03/06 12:20:52;;;;;;;32.50;25.20;;;;;;;11.64;40.42;100142.55;105200;1254;60720;-64
2024/03/06 12:37:32;;;;;;;40.00;28.50;;;;;;;11.14;41.07;100151.98;105067;1258;60014;-63
2024/03/06 12:40:45;;;;;;;38.10;27.90;;;;;;;11.17;40.86;100155.56;105619;1253;60022;-63
2024/03/06 12:54:30;;;;;;;35.50;26.40;;;;;;;10.81;41.14;100163.54;104720;1254;61996;-63
2024/03/06 12:57:18;;;;;;;38.30;26.20;;;;;;;10.81;41.04;100168.09;106102;1255;60341;-62
2024/03/06 13:00:29;;;;;;;39.40;29.50;;;;;;;10.58;41.21;100175.20;105084;1255;73786;-62
2024/03/06 13:03:45;;;;;;;36.30;26.30;;;;;;;10.54;41.28;100175.35;105578;1255;68595;-62
2024/03/06 13:06:57;;;;;;;41.00;30.10;;;;;;;10.49;41.27;100176.38;106087;1254;74731;-63
2024/03/06 13:10:10;;;;;;;37.80;27.40;;;;;;;10.50;41.19;100178.09;105515;1258;60936;-63
2024/03/06 13:13:23;;;;;;;37.80;26.70;;;;;;;10.44;41.35;100175.13;105096;1253;59761;-65
2024/03/06 13:15:58;;;;;;;33.50;25.70;;;;;;;10.30;41.38;100179.96;105454;1253;75205;-64
2024/03/06 13:19:13;;;;;;;34.20;25.30;;;;;;;10.35;41.31;100176.31;105880;1256;69435;-63
2024/03/06 13:46:46;;;;;;;35.60;24.30;;;;;;;10.06;41.15;100176.70;104814;1254;60340;-62
2024/03/06 13:49:58;;;;;;;35.00;24.20;;;;;;;9.91;41.12;100173.16;105233;1254;73525;-62
2024/03/06 13:53:10;;;;;;;32.90;23.30;;;;;;;9.73;41.32;100176.69;104536;1257;69348;-61
2024/03/06 13:56:22;;;;;;;31.60;24.50;;;;;;;9.71;41.30;100175.89;105226;1257;72523;-62
2024/03/06 13:59:34;;;;;;;31.90;23.50;;;;;;;9.65;41.23;100178.67;104786;1256;59928;-64
2024/03/06 14:06:17;;;;;;;35.10;23.40;;;;;;;9.51;41.54;100183.14;105068;1253;72836;-65
2024/03/06 14:08:55;;;;;;;30.20;22.70;;;;;;;9.49;41.53;100183.73;104626;1266;69968;-65
2024/03/06 14:12:10;;;;;;;30.70;22.90;;;;;;;9.49;41.68;100186.52;104790;1259;73023;-64
2024/03/06 14:15:26;;;;;;;30.80;22.40;;;;;;;9.55;41.33;100184.06;105392;1255;61235;-66
2024/03/06 14:18:38;;;;;;;31.50;22.30;;;;;;;9.56;41.40;100185.25;104539;1258;59564;-65
2024/03/06 14:21:52;;;;;;;35.20;24.30;;;;;;;9.59;41.33;100183.77;105481;1253;73504;-66
2024/03/06 14:25:04;;;;;;;31.40;24.40;;;;;;;9.47;41.59;100190.60;104491;1253;70216;-69
2024/03/06 14:28:18;;;;;;;28.90;22.40;;;;;;;9.53;41.53;100189.21;106246;1253;72842;-68
2024/03/06 14:31:31;;;;;;;31.30;22.80;;;;;;;9.55;41.73;100189.15;106096;1258;60684;-67
2024/03/06 14:41:54;;;;;;;31.40;22.40;;;;;;;9.81;41.19;100187.64;106975;1253;70207;-66
2024/03/06 14:45:11;;;;;;;30.00;20.90;;;;;;;10.00;40.91;100191.45;107282;1253;71817;-61
2024/03/06 14:48:23;;;;;;;30.90;22.00;;;;;;;10.06;41.00;100195.26;107524;1256;59873;-61
2024/03/06 15:08:28;;;;;;;27.30;21.30;;;;;;;10.06;40.94;100194.58;105331;1252;62256;-67
2024/03/06 15:11:45;;;;;;;31.90;22.00;;;;;;;10.25;40.75;100205.52;105283;1262;72292;-67
2024/03/06 15:14:58;;;;;;;30.70;22.20;;;;;;;10.29;40.52;100207.49;104993;1253;68928;-65
2024/03/06 15:17:26;;;;;;;32.10;22.20;;;;;;;10.28;40.82;100208.24;105144;1255;71647;-67
2024/03/06 15:20:38;;;;;;;34.90;23.40;;;;;;;10.23;40.86;100213.83;105855;1258;61695;-67
2024/03/06 15:23:54;;;;;;;34.00;24.10;;;;;;;10.26;40.88;100215.31;106552;1257;60108;-67
2024/03/06 15:27:06;;;;;;;29.90;21.90;;;;;;;10.22;40.85;100221.77;105782;1253;73566;-67
2024/03/06 15:30:20;;;;;;;33.20;21.50;;;;;;;10.13;40.75;100221.33;105786;1253;70801;-64
2024/03/06 15:33:32;;;;;;;35.50;21.20;;;;;;;10.10;40.92;100228.77;106143;1253;71457;-62
2024/03/06 15:36:25;;;;;;;32.90;21.10;;;;;;;10.03;41.30;100228.98;107201;1253;60032;-64
2024/03/06 15:39:39;;;;;;;32.20;20.20;;;;;;;9.99;41.34;100232.44;106067;1253;59606;-63
2024/03/06 15:42:38;;;;;;;26.40;19.60;;;;;;;10.02;41.35;100238.66;106804;1253;75894;-65
2024/03/06 15:45:37;;;;;;;26.20;20.70;;;;;;;9.94;41.17;100239.09;104694;1257;68373;-64
2024/03/06 15:48:49;;;;;;;29.00;19.90;;;;;;;9.97;41.23;100241.43;105923;1256;73582;-65
2024/03/06 15:52:04;;;;;;;28.70;20.90;;;;;;;9.85;41.41;100246.38;105872;1258;61181;-65
2024/03/06 15:54:54;;;;;;;24.10;18.60;;;;;;;9.82;41.36;100247.32;105360;1253;60140;-67
2024/03/06 15:58:10;;;;;;;27.40;20.50;;;;;;;9.70;41.43;100250.13;104850;1253;73300;-68
2024/03/06 16:01:22;;;;;;;26.10;19.30;;;;;;;9.77;41.31;100252.36;104968;1253;72561;-69
2024/03/06 16:04:15;;;;;;;25.70;20.00;;;;;;;9.88;41.05;100254.15;104493;1270;73196;-67
2024/03/06 16:06:44;;;;;;;26.10;18.50;;;;;;;9.89;40.97;100253.23;104859;1253;61346;-68
2024/03/06 16:13:01;;;;;;;27.10;20.10;;;;;;;9.75;41.24;100261.01;105031;1254;73076;-69
2024/03/06 16:16:13;;;;;;;25.20;19.60;;;;;;;9.64;41.51;100265.88;106110;1253;71741;-68
2024/03/06 16:18:49;;;;;;;26.30;19.40;;;;;;;9.85;41.19;100268.77;106036;1258;72485;-69
2024/03/06 16:22:02;;;;;;;28.60;20.10;;;;;;;9.94;41.21;100267.27;104873;1257;60871;-69
2024/03/06 16:25:14;;;;;;;29.30;20.80;;;;;;;9.91;41.03;100272.11;105665;1253;61668;-69
2024/03/06 16:28:15;;;;;;;27.20;19.60;;;;;;;9.74;41.36;100275.91;106283;1253;74689;-69
2024/03/06 16:41:32;;;;;;;25.60;17.00;;;;;;;9.68;41.93;100293.44;105004;1255;60429;-66
2024/03/06 16:44:44;;;;;;;26.40;18.50;;;;;;;9.44;42.08;100294.64;104892;1253;73847;-65
2024/03/06 16:47:21;;;;;;;23.60;17.50;;;;;;;9.28;42.33;100298.04;105035;1256;69385;-66
2024/03/06 16:50:39;;;;;;;24.40;18.20;;;;;;;9.18;42.51;100299.70;105042;1257;72540;-66
2024/03/06 16:53:51;;;;;;;25.00;17.10;;;;;;;9.06;42.82;100300.54;104692;1270;64548;-68
2024/03/06 16:57:03;;;;;;;22.10;16.20;;;;;;;8.99;42.71;100302.32;104910;1257;60544;-67
2024/03/06 17:00:15;;;;;;;21.40;16.10;;;;;;;8.86;42.85;100301.92;104737;1253;73378;-67
2024/03/06 17:03:27;;;;;;;21.00;15.30;;;;;;;8.82;42.96;100305.35;105189;1253;69806;-67
2024/03/06 17:06:42;;;;;;;24.70;16.80;;;;;;;8.82;42.97;100307.81;105115;1256;73607;-67
2024/03/06 17:09:53;;;;;;;19.30;15.00;;;;;;;8.72;43.14;100311.04;104416;1256;60855;-66
2024/03/06 17:13:05;;;;;;;24.40;16.70;;;;;;;8.53;43.28;100314.80;104685;1270;60504;-67
2024/03/06 17:16:17;;;;;;;22.80;17.20;;;;;;;8.33;43.62;100315.93;107347;1256;76203;-67
2024/03/06 17:19:29;;;;;;;24.10;16.40;;;;;;;8.25;43.98;100318.02;104980;1253;69978;-67
2024/03/06 17:22:44;;;;;;;21.90;16.00;;;;;;;8.20;44.00;100317.95;105176;1253;72619;-66
2024/03/06 17:25:59;;;;;;;25.70;17.60;;;;;;;8.18;44.16;100318.52;105881;1257;60618;-68
2024/03/06 17:32:21;;;;;;;24.60;18.20;;;;;;;8.47;43.78;100323.86;105016;1257;73908;-67
2024/03/06 17:35:33;;;;;;;25.80;18.30;;;;;;;8.47;43.58;100320.36;105415;1253;70149;-65
2024/03/06 17:38:46;;;;;;;22.60;17.20;;;;;;;8.46;43.42;100322.80;104847;1256;74650;-68
2024/03/06 17:42:08;;;;;;;28.20;18.00;;;;;;;8.27;43.96;100324.64;107776;1252;60346;-65
2024/03/06 17:48:13;;;;;;;25.00;17.30;;;;;;;8.19;44.18;100324.63;104761;1256;72868;-66
2024/03/06 17:54:16;;;;;;;25.80;17.90;;;;;;;8.30;43.86;100327.17;105210;1254;73389;-63
2024/03/06 17:57:21;;;;;;;27.50;19.20;;;;;;;8.28;43.96;100331.58;105145;1253;63658;-65
2024/03/06 18:00:34;;;;;;;25.00;18.10;;;;;;;8.42;43.92;100333.91;106565;1253;60461;-64
2024/03/06 18:03:46;;;;;;;28.80;20.00;;;;;;;8.51;44.10;100332.48;106950;1253;73621;-63
2024/03/06 18:06:59;;;;;;;26.60;18.40;;;;;;;8.61;43.68;100335.58;105599;1257;69737;-70
2024/03/06 18:10:12;;;;;;;24.50;18.50;;;;;;;8.65;44.05;100339.84;104660;1257;72542;-62
2024/03/06 18:13:23;;;;;;;25.40;18.60;;;;;;;8.66;43.64;100338.95;105883;1252;60401;-62
2024/03/06 18:16:38;;;;;;;29.90;17.50;;;;;;;8.52;43.95;100337.00;105434;1255;60301;-66
2024/03/06 18:23:20;;;;;;;24.40;18.20;;;;;;;8.48;44.18;100342.52;106052;1253;69274;-66
2024/03/06 18:26:32;;;;;;;27.90;17.80;;;;;;;8.49;44.42;100344.94;106239;1254;73227;-67
2024/03/06 18:29:45;;;;;;;26.90;16.70;;;;;;;8.41;44.30;100346.69;105509;1257;61599;-65
2024/03/06 18:36:24;;;;;;;23.70;16.40;;;;;;;8.36;44.46;100348.85;105033;1253;74759;-65
2024/03/06 18:39:39;;;;;;;28.40;18.40;;;;;;;8.34;44.49;100349.27;105115;1253;72191;-64
2024/03/06 18:42:50;;;;;;;22.90;17.30;;;;;;;8.27;44.56;100353.44;104917;1254;73083;-66
2024/03/06 18:46:02;;;;;;;25.90;16.70;;;;;;;8.31;44.73;100350.56;106835;1254;61238;-62
2024/03/06 18:49:19;;;;;;;25.60;15.90;;;;;;;8.27;44.78;100351.51;106532;1255;59938;-66
2024/03/06 18:52:21;;;;;;;23.90;16.80;;;;;;;8.24;45.17;100348.80;105297;1253;73653;-65
2024/03/06 18:58:38;;;;;;;24.70;16.50;;;;;;;8.28;45.12;100355.69;104915;1258;73076;-65
2024/03/06 19:01:45;;;;;;;26.00;16.80;;;;;;;8.12;45.10;100356.55;105255;1254;61225;-66
2024/03/06 19:04:58;;;;;;;26.50;17.00;;;;;;;8.11;45.32;100356.92;104832;1253;62260;-69
2024/03/06 19:08:09;;;;;;;23.00;16.20;;;;;;;8.21;45.22;100357.23;105030;1253;74664;-67
2024/03/06 19:14:20;;;;;;;24.20;16.70;;;;;;;8.18;45.19;100359.41;105221;1253;72505;-64
2024/03/06 19:17:20;;;;;;;24.90;16.20;;;;;;;8.23;44.98;100358.23;106192;1254;60448;-65
2024/03/06 19:20:37;;;;;;;22.80;16.40;;;;;;;8.27;44.95;100361.30;105024;1256;62566;-65
2024/03/06 19:23:49;;;;;;;19.50;15.40;;;;;;;8.22;44.71;100358.45;104495;1257;73992;-63
2024/03/06 19:37:22;;;;;;;20.10;14.30;;;;;;;8.03;45.01;100362.86;104741;1266;62542;-69
2024/03/06 19:40:38;;;;;;;21.90;15.00;;;;;;;7.98;45.31;100361.02;105185;1257;76104;-65
2024/03/06 19:43:51;;;;;;;19.50;14.60;;;;;;;7.95;45.29;100361.44;105619;1256;68260;-65
2024/03/06 19:47:03;;;;;;;21.70;14.90;;;;;;;8.04;45.11;100362.31;104774;1254;72905;-66
2024/03/06 19:50:17;;;;;;;25.70;16.30;;;;;;;8.08;45.10;100361.72;104624;1253;60950;-65
2024/03/06 19:53:29;;;;;;;20.00;14.60;;;;;;;8.09;44.99;100363.59;106121;1256;62021;-65
2024/03/06 19:56:01;;;;;;;18.90;14.30;;;;;;;8.10;45.05;100365.85;104620;1257;73697;-66
2024/03/06 19:58:32;;;;;;;22.10;15.70;;;;;;;8.14;45.15;100365.95;105383;1256;70270;-65
2024/03/06 20:01:03;;;;;;;20.30;14.80;;;;;;;8.27;44.83;100362.88;105859;1258;74284;-66
2024/03/06 20:03:36;;;;;;;21.00;14.50;;;;;;;8.31;44.63;100364.02;106531;1252;63068;-65
2024/03/06 20:06:48;;;;;;;22.70;14.10;;;;;;;8.31;44.88;100366.10;105489;1256;62116;-65
2024/03/06 20:10:01;;;;;;;21.30;14.90;;;;;;;8.29;44.93;100365.27;104816;1256;74186;-64
2024/03/06 20:12:48;;;;;;;18.10;14.10;;;;;;;8.28;44.85;100368.61;105300;1253;68882;-65
2024/03/06 20:22:21;;;;;;;18.30;12.50;;;;;;;8.30;44.68;100357.56;105243;1259;60628;-64
2024/03/06 20:25:34;;;;;;;17.70;13.70;;;;;;;8.27;44.72;100357.63;104629;1253;74272;-64
2024/03/06 20:28:49;;;;;;;17.80;13.20;;;;;;;8.22;44.78;100357.05;105261;1259;70230;-65
2024/03/06 20:31:48;;;;;;;19.30;13.70;;;;;;;8.24;44.87;100357.69;104798;1256;73272;-65
2024/03/06 20:35:00;;;;;;;17.90;13.20;;;;;;;8.24;44.80;100358.21;104316;1258;61228;-64
2024/03/06 20:38:13;;;;;;;20.00;14.30;;;;;;;8.23;44.83;100356.84;104950;1257;60488;-64
2024/03/06 20:41:30;;;;;;;19.30;14.90;;;;;;;8.30;44.72;100356.52;104421;1259;73692;-64
2024/03/06 20:48:15;;;;;;;17.50;12.70;;;;;;;8.22;44.87;100357.03;105566;1254;72404;-67
2024/03/06 20:51:27;;;;;;;18.60;13.30;;;;;;;8.20;45.04;100362.33;105308;1253;60996;-66
2024/03/06 20:54:38;;;;;;;18.50;13.60;;;;;;;8.16;44.91;100362.59;105775;1258;60537;-64
2024/03/06 20:57:22;;;;;;;17.80;12.80;;;;;;;8.10;45.09;100362.36;105869;1253;73975;-68
2024/03/06 21:00:34;;;;;;;19.30;13.70;;;;;;;8.15;45.03;100363.48;106176;1253;70939;-68
2024/03/06 21:03:46;;;;;;;18.70;13.80;;;;;;;8.18;45.02;100365.50;105490;1254;72100;-67
2024/03/06 21:06:58;;;;;;;21.70;14.00;;;;;;;8.23;45.17;100367.33;105457;1258;63401;-68
2024/03/06 21:10:14;;;;;;;15.20;12.10;;;;;;;8.22;45.29;100367.00;104577;1254;62081;-68
2024/03/06 21:13:28;;;;;;;18.00;12.90;;;;;;;8.14;45.28;100369.09;104475;1255;72921;-68
2024/03/06 21:16:40;;;;;;;15.80;13.30;;;;;;;8.34;44.95;100365.16;104561;1260;68793;-65
2024/03/06 21:19:52;;;;;;;15.60;13.10;;;;;;;8.38;44.78;100363.84;104817;1258;71673;-65
2024/03/06 21:23:05;;;;;;;16.50;11.70;;;;;;;8.43;44.97;100364.98;104531;1254;59988;-65
2024/03/06 21:26:19;;;;;;;17.50;12.40;;;;;;;8.51;44.95;100363.75;104727;1258;61255;-68
2024/03/06 21:36:33;;;;;;;17.20;12.90;;;;;;;8.46;45.12;100367.17;104762;1255;72848;-69
2024/03/06 21:39:48;;;;;;;17.60;12.10;;;;;;;8.47;45.11;100371.20;104546;1257;62053;-67
2024/03/06 21:46:32;;;;;;;15.90;12.40;;;;;;;8.38;45.24;100373.46;104702;1253;74538;-68
2024/03/06 21:49:44;;;;;;;16.00;12.30;;;;;;;8.45;45.30;100370.72;105624;1258;68193;-69
2024/03/06 21:52:21;;;;;;;16.50;12.50;;;;;;;8.45;45.58;100371.25;105259;1253;72900;-67
2024/03/06 21:55:33;;;;;;;20.30;12.70;;;;;;;8.48;45.59;100369.60;105063;1257;60592;-67
2024/03/06 22:02:22;;;;;;;16.40;11.40;;;;;;;8.54;45.45;100365.61;105839;1257;72759;-66
2024/03/06 22:05:34;;;;;;;16.90;12.60;;;;;;;8.58;45.31;100369.02;106601;1258;69306;-67
2024/03/06 22:15:47;;;;;;;17.10;11.70;;;;;;;8.60;45.20;100368.11;104550;1257;60683;-67
2024/03/06 22:18:58;;;;;;;14.30;10.80;;;;;;;8.55;45.29;100368.91;105444;1257;73577;-67
2024/03/06 22:21:39;;;;;;;15.60;10.90;;;;;;;8.49;45.25;100367.45;105194;1260;69801;-67
2024/03/06 22:24:52;;;;;;;15.00;11.10;;;;;;;8.47;45.21;100371.73;105435;1258;72534;-68
2024/03/06 22:28:04;;;;;;;13.20;10.50;;;;;;;8.55;45.18;100374.16;105241;1253;60977;-67
2024/03/06 22:31:15;;;;;;;13.00;10.10;;;;;;;8.45;45.05;100370.55;105444;1259;60541;-71
2024/03/06 22:34:27;;;;;;;12.50;10.10;;;;;;;8.53;44.97;100375.25;105378;1259;74586;-67
2024/03/06 22:37:40;;;;;;;11.50;9.30;;;;;;;8.47;45.04;100374.86;105677;1258;69029;-67
2024/03/06 22:40:52;;;;;;;10.40;8.90;;;;;;;8.51;44.75;100375.13;105033;1259;72304;-69
2024/03/06 22:44:05;;;;;;;11.20;7.50;;;;;;;8.48;44.41;100373.09;104923;1259;60802;-68
2024/03/06 22:47:17;;;;;;;9.60;7.70;;;;;;;8.42;44.24;100374.63;105043;1256;60536;-67
2024/03/06 22:50:29;;;;;;;8.80;7.90;;;;;;;8.31;44.25;100370.46;105159;1254;73226;-67
2024/03/06 22:53:42;;;;;;;8.80;7.40;;;;;;;8.18;44.31;100375.82;104934;1258;68730;-67